sensor_id;sensor_type;location;lat;lon;timestamp;P1;durP1;ratioP1;P2;durP2;ratioP2
83690;SDS011;73671;43.220;0.064;2023-12-14T00:01:27;6.93;;;1.67;;
83690;SDS011;73671;43.220;0.064;2023-12-14T00:03:53;6.03;;;1.70;;
83690;SDS011;73671;43.220;0.064;2023-12-14T00:06:18;4.15;;;1.80;;
83690;SDS011;73671;43.220;0.064;2023-12-14T00:08:43;7.93;;;2.25;;
83690;SDS011;73671;43.220;0.064;2023-12-14T00:11:10;4.65;;;1.70;;
83690;SDS011;73671;43.220;0.064;2023-12-14T00:13:36;4.55;;;1.50;;
83690;SDS011;73671;43.220;0.064;2023-12-14T00:16:02;6.80;;;1.85;;
83690;SDS011;73671;43.220;0.064;2023-12-14T00:18:28;4.00;;;1.60;;
83690;SDS011;73671;43.220;0.064;2023-12-14T00:20:54;3.65;;;1.40;;
83690;SDS011;73671;43.220;0.064;2023-12-14T00:23:19;4.82;;;1.67;;
83690;SDS011;73671;43.220;0.064;2023-12-14T00:25:45;6.07;;;1.50;;
83690;SDS011;73671;43.220;0.064;2023-12-14T00:28:11;8.27;;;1.65;;
83690;SDS011;73671;43.220;0.064;2023-12-14T00:30:36;6.70;;;1.70;;
83690;SDS011;73671;43.220;0.064;2023-12-14T00:33:01;8.35;;;2.10;;
83690;SDS011;73671;43.220;0.064;2023-12-14T00:35:27;7.50;;;2.00;;
83690;SDS011;73671;43.220;0.064;2023-12-14T00:37:52;3.88;;;1.60;;
83690;SDS011;73671;43.220;0.064;2023-12-14T00:40:18;5.38;;;1.73;;
83690;SDS011;73671;43.220;0.064;2023-12-14T00:42:43;6.70;;;1.80;;
83690;SDS011;73671;43.220;0.064;2023-12-14T00:45:09;6.45;;;2.33;;
83690;SDS011;73671;43.220;0.064;2023-12-14T00:47:35;6.10;;;1.80;;
83690;SDS011;73671;43.220;0.064;2023-12-14T00:50:00;3.83;;;1.83;;
83690;SDS011;73671;43.220;0.064;2023-12-14T00:52:26;10.65;;;2.10;;
83690;SDS011;73671;43.220;0.064;2023-12-14T00:54:51;5.90;;;1.48;;
83690;SDS011;73671;43.220;0.064;2023-12-14T00:57:17;4.90;;;2.47;;
83690;SDS011;73671;43.220;0.064;2023-12-14T00:59:42;5.85;;;1.92;;
83690;SDS011;73671;43.220;0.064;2023-12-14T01:02:07;12.52;;;2.03;;
83690;SDS011;73671;43.220;0.064;2023-12-14T01:04:33;7.53;;;1.80;;
83690;SDS011;73671;43.220;0.064;2023-12-14T01:06:58;6.40;;;1.85;;
83690;SDS011;73671;43.220;0.064;2023-12-14T01:09:24;4.22;;;1.80;;
83690;SDS011;73671;43.220;0.064;2023-12-14T01:11:49;5.70;;;1.75;;
83690;SDS011;73671;43.220;0.064;2023-12-14T01:14:15;4.38;;;1.60;;
83690;SDS011;73671;43.220;0.064;2023-12-14T01:16:40;7.03;;;2.03;;
83690;SDS011;73671;43.220;0.064;2023-12-14T01:19:06;3.33;;;1.75;;
83690;SDS011;73671;43.220;0.064;2023-12-14T01:21:32;3.58;;;1.80;;
83690;SDS011;73671;43.220;0.064;2023-12-14T01:23:57;6.45;;;1.80;;
83690;SDS011;73671;43.220;0.064;2023-12-14T01:26:23;4.07;;;1.80;;
83690;SDS011;73671;43.220;0.064;2023-12-14T01:28:48;5.57;;;1.92;;
83690;SDS011;73671;43.220;0.064;2023-12-14T01:31:14;3.63;;;1.80;;
83690;SDS011;73671;43.220;0.064;2023-12-14T01:33:39;6.25;;;1.85;;
83690;SDS011;73671;43.220;0.064;2023-12-14T01:36:05;7.45;;;1.90;;
83690;SDS011;73671;43.220;0.064;2023-12-14T01:38:30;7.25;;;2.00;;
83690;SDS011;73671;43.220;0.064;2023-12-14T01:40:56;13.07;;;2.08;;
83690;SDS011;73671;43.220;0.064;2023-12-14T01:43:21;6.53;;;1.80;;
83690;SDS011;73671;43.220;0.064;2023-12-14T01:45:47;6.60;;;2.00;;
83690;SDS011;73671;43.220;0.064;2023-12-14T01:48:12;7.78;;;1.80;;
83690;SDS011;73671;43.220;0.064;2023-12-14T01:50:37;8.93;;;2.20;;
83690;SDS011;73671;43.220;0.064;2023-12-14T01:53:03;5.57;;;2.00;;
83690;SDS011;73671;43.220;0.064;2023-12-14T01:55:29;8.32;;;2.33;;
83690;SDS011;73671;43.220;0.064;2023-12-14T01:57:54;8.65;;;2.00;;
83690;SDS011;73671;43.220;0.064;2023-12-14T02:03:14;10.23;;;2.10;;
83690;SDS011;73671;43.220;0.064;2023-12-14T02:05:41;6.03;;;2.00;;
83690;SDS011;73671;43.220;0.064;2023-12-14T02:08:06;7.93;;;2.00;;
83690;SDS011;73671;43.220;0.064;2023-12-14T02:10:32;6.18;;;2.03;;
83690;SDS011;73671;43.220;0.064;2023-12-14T02:12:57;12.55;;;1.80;;
83690;SDS011;73671;43.220;0.064;2023-12-14T02:15:23;8.38;;;2.00;;
83690;SDS011;73671;43.220;0.064;2023-12-14T02:17:48;9.85;;;2.25;;
83690;SDS011;73671;43.220;0.064;2023-12-14T02:20:14;10.63;;;2.28;;
83690;SDS011;73671;43.220;0.064;2023-12-14T02:22:49;9.20;;;2.15;;
83690;SDS011;73671;43.220;0.064;2023-12-14T02:25:18;7.47;;;1.98;;
83690;SDS011;73671;43.220;0.064;2023-12-14T02:27:44;6.40;;;1.90;;
83690;SDS011;73671;43.220;0.064;2023-12-14T02:30:10;4.97;;;1.90;;
83690;SDS011;73671;43.220;0.064;2023-12-14T02:32:37;8.70;;;2.00;;
83690;SDS011;73671;43.220;0.064;2023-12-14T02:35:04;9.07;;;2.20;;
83690;SDS011;73671;43.220;0.064;2023-12-14T02:37:30;10.10;;;2.00;;
83690;SDS011;73671;43.220;0.064;2023-12-14T02:39:57;9.68;;;2.17;;
83690;SDS011;73671;43.220;0.064;2023-12-14T02:42:22;5.88;;;1.80;;
83690;SDS011;73671;43.220;0.064;2023-12-14T02:44:49;4.60;;;1.70;;
83690;SDS011;73671;43.220;0.064;2023-12-14T02:47:15;9.65;;;2.22;;
83690;SDS011;73671;43.220;0.064;2023-12-14T02:49:40;7.20;;;2.20;;
83690;SDS011;73671;43.220;0.064;2023-12-14T02:52:06;7.10;;;2.15;;
83690;SDS011;73671;43.220;0.064;2023-12-14T02:54:31;7.80;;;2.00;;
83690;SDS011;73671;43.220;0.064;2023-12-14T02:56:57;6.30;;;1.80;;
83690;SDS011;73671;43.220;0.064;2023-12-14T02:59:22;4.60;;;1.77;;
83690;SDS011;73671;43.220;0.064;2023-12-14T03:01:47;8.60;;;1.77;;
83690;SDS011;73671;43.220;0.064;2023-12-14T03:04:13;6.53;;;2.20;;
83690;SDS011;73671;43.220;0.064;2023-12-14T03:06:38;4.93;;;1.73;;
83690;SDS011;73671;43.220;0.064;2023-12-14T03:09:04;6.60;;;1.85;;
83690;SDS011;73671;43.220;0.064;2023-12-14T03:11:29;6.45;;;1.85;;
83690;SDS011;73671;43.220;0.064;2023-12-14T03:13:55;9.10;;;2.75;;
83690;SDS011;73671;43.220;0.064;2023-12-14T03:16:21;5.50;;;1.83;;
83690;SDS011;73671;43.220;0.064;2023-12-14T03:18:46;3.35;;;1.73;;
83690;SDS011;73671;43.220;0.064;2023-12-14T03:21:17;5.80;;;2.20;;
83690;SDS011;73671;43.220;0.064;2023-12-14T03:23:43;6.90;;;2.33;;
83690;SDS011;73671;43.220;0.064;2023-12-14T03:26:08;5.85;;;2.10;;
83690;SDS011;73671;43.220;0.064;2023-12-14T03:28:33;8.40;;;2.25;;
83690;SDS011;73671;43.220;0.064;2023-12-14T03:30:59;13.40;;;1.88;;
83690;SDS011;73671;43.220;0.064;2023-12-14T03:33:25;7.03;;;2.10;;
83690;SDS011;73671;43.220;0.064;2023-12-14T03:35:50;4.70;;;1.75;;
83690;SDS011;73671;43.220;0.064;2023-12-14T03:38:15;12.05;;;1.92;;
83690;SDS011;73671;43.220;0.064;2023-12-14T03:40:41;6.57;;;1.70;;
83690;SDS011;73671;43.220;0.064;2023-12-14T03:43:06;6.68;;;2.22;;
83690;SDS011;73671;43.220;0.064;2023-12-14T03:45:32;5.50;;;1.90;;
83690;SDS011;73671;43.220;0.064;2023-12-14T03:47:57;5.93;;;2.10;;
83690;SDS011;73671;43.220;0.064;2023-12-14T03:50:23;7.45;;;1.90;;
83690;SDS011;73671;43.220;0.064;2023-12-14T03:52:48;5.22;;;1.70;;
83690;SDS011;73671;43.220;0.064;2023-12-14T03:55:14;3.53;;;2.00;;
83690;SDS011;73671;43.220;0.064;2023-12-14T03:57:40;4.53;;;2.05;;
83690;SDS011;73671;43.220;0.064;2023-12-14T04:00:07;6.70;;;1.85;;
83690;SDS011;73671;43.220;0.064;2023-12-14T04:02:42;7.40;;;1.90;;
83690;SDS011;73671;43.220;0.064;2023-12-14T04:05:08;3.88;;;1.65;;
83690;SDS011;73671;43.220;0.064;2023-12-14T04:07:37;7.13;;;1.83;;
83690;SDS011;73671;43.220;0.064;2023-12-14T04:10:09;7.80;;;2.00;;
83690;SDS011;73671;43.220;0.064;2023-12-14T04:12:35;4.97;;;1.70;;
83690;SDS011;73671;43.220;0.064;2023-12-14T04:15:02;7.38;;;1.95;;
83690;SDS011;73671;43.220;0.064;2023-12-14T04:17:28;10.70;;;2.05;;
83690;SDS011;73671;43.220;0.064;2023-12-14T04:19:55;6.10;;;1.80;;
83690;SDS011;73671;43.220;0.064;2023-12-14T04:22:20;3.00;;;1.70;;
83690;SDS011;73671;43.220;0.064;2023-12-14T04:24:46;3.17;;;1.70;;
83690;SDS011;73671;43.220;0.064;2023-12-14T04:27:11;6.93;;;2.17;;
83690;SDS011;73671;43.220;0.064;2023-12-14T04:29:37;5.72;;;1.70;;
83690;SDS011;73671;43.220;0.064;2023-12-14T04:32:02;5.53;;;1.98;;
83690;SDS011;73671;43.220;0.064;2023-12-14T04:34:28;6.13;;;2.00;;
83690;SDS011;73671;43.220;0.064;2023-12-14T04:36:53;5.07;;;2.00;;
83690;SDS011;73671;43.220;0.064;2023-12-14T04:39:22;6.07;;;1.80;;
83690;SDS011;73671;43.220;0.064;2023-12-14T04:41:49;6.65;;;2.00;;
83690;SDS011;73671;43.220;0.064;2023-12-14T04:44:15;9.27;;;2.15;;
83690;SDS011;73671;43.220;0.064;2023-12-14T04:46:40;5.18;;;1.73;;
83690;SDS011;73671;43.220;0.064;2023-12-14T04:49:06;6.80;;;2.25;;
83690;SDS011;73671;43.220;0.064;2023-12-14T04:51:31;7.15;;;1.83;;
83690;SDS011;73671;43.220;0.064;2023-12-14T04:53:57;9.75;;;2.15;;
83690;SDS011;73671;43.220;0.064;2023-12-14T04:56:22;6.57;;;2.20;;
83690;SDS011;73671;43.220;0.064;2023-12-14T04:58:48;6.40;;;1.85;;
83690;SDS011;73671;43.220;0.064;2023-12-14T05:01:13;6.43;;;1.80;;
83690;SDS011;73671;43.220;0.064;2023-12-14T05:03:39;3.92;;;1.90;;
83690;SDS011;73671;43.220;0.064;2023-12-14T05:06:05;7.72;;;2.03;;
83690;SDS011;73671;43.220;0.064;2023-12-14T05:08:31;7.78;;;2.15;;
83690;SDS011;73671;43.220;0.064;2023-12-14T05:10:56;9.27;;;1.90;;
83690;SDS011;73671;43.220;0.064;2023-12-14T05:13:22;7.35;;;1.95;;
83690;SDS011;73671;43.220;0.064;2023-12-14T05:15:47;5.70;;;1.90;;
83690;SDS011;73671;43.220;0.064;2023-12-14T05:18:13;4.03;;;2.08;;
83690;SDS011;73671;43.220;0.064;2023-12-14T05:20:38;5.75;;;2.30;;
83690;SDS011;73671;43.220;0.064;2023-12-14T05:23:03;7.57;;;2.13;;
83690;SDS011;73671;43.220;0.064;2023-12-14T05:25:29;8.65;;;2.50;;
83690;SDS011;73671;43.220;0.064;2023-12-14T05:27:54;7.45;;;2.17;;
83690;SDS011;73671;43.220;0.064;2023-12-14T05:30:19;10.15;;;2.22;;
83690;SDS011;73671;43.220;0.064;2023-12-14T05:32:45;9.50;;;2.08;;
83690;SDS011;73671;43.220;0.064;2023-12-14T05:35:11;7.15;;;2.20;;
83690;SDS011;73671;43.220;0.064;2023-12-14T05:37:40;6.60;;;2.00;;
83690;SDS011;73671;43.220;0.064;2023-12-14T05:40:07;9.43;;;2.30;;
83690;SDS011;73671;43.220;0.064;2023-12-14T05:42:33;8.50;;;2.13;;
83690;SDS011;73671;43.220;0.064;2023-12-14T05:44:58;7.28;;;2.00;;
83690;SDS011;73671;43.220;0.064;2023-12-14T05:47:25;4.22;;;2.00;;
83690;SDS011;73671;43.220;0.064;2023-12-14T05:49:51;4.45;;;2.30;;
83690;SDS011;73671;43.220;0.064;2023-12-14T05:52:17;9.30;;;2.08;;
83690;SDS011;73671;43.220;0.064;2023-12-14T05:54:42;9.13;;;2.63;;
83690;SDS011;73671;43.220;0.064;2023-12-14T05:57:08;3.72;;;1.98;;
83690;SDS011;73671;43.220;0.064;2023-12-14T05:59:33;5.80;;;2.10;;
83690;SDS011;73671;43.220;0.064;2023-12-14T06:01:59;7.10;;;1.92;;
83690;SDS011;73671;43.220;0.064;2023-12-14T06:04:26;7.25;;;2.05;;
83690;SDS011;73671;43.220;0.064;2023-12-14T06:06:52;7.57;;;2.00;;
83690;SDS011;73671;43.220;0.064;2023-12-14T06:09:17;6.07;;;2.05;;
83690;SDS011;73671;43.220;0.064;2023-12-14T06:11:47;7.28;;;2.20;;
83690;SDS011;73671;43.220;0.064;2023-12-14T06:14:12;9.57;;;2.30;;
83690;SDS011;73671;43.220;0.064;2023-12-14T06:16:38;7.68;;;2.60;;
83690;SDS011;73671;43.220;0.064;2023-12-14T06:19:03;4.20;;;2.17;;
83690;SDS011;73671;43.220;0.064;2023-12-14T06:21:29;12.77;;;2.97;;
83690;SDS011;73671;43.220;0.064;2023-12-14T06:23:55;3.92;;;2.33;;
83690;SDS011;73671;43.220;0.064;2023-12-14T06:26:22;7.15;;;2.15;;
83690;SDS011;73671;43.220;0.064;2023-12-14T06:28:47;7.10;;;2.13;;
83690;SDS011;73671;43.220;0.064;2023-12-14T06:31:13;6.55;;;1.90;;
83690;SDS011;73671;43.220;0.064;2023-12-14T06:33:41;7.68;;;2.15;;
83690;SDS011;73671;43.220;0.064;2023-12-14T06:36:07;5.47;;;2.20;;
83690;SDS011;73671;43.220;0.064;2023-12-14T06:38:33;7.20;;;2.10;;
83690;SDS011;73671;43.220;0.064;2023-12-14T06:40:59;8.45;;;2.22;;
83690;SDS011;73671;43.220;0.064;2023-12-14T06:43:24;9.27;;;2.70;;
83690;SDS011;73671;43.220;0.064;2023-12-14T06:45:49;6.07;;;2.30;;
83690;SDS011;73671;43.220;0.064;2023-12-14T06:48:15;13.52;;;2.38;;
83690;SDS011;73671;43.220;0.064;2023-12-14T06:50:40;10.02;;;2.50;;
83690;SDS011;73671;43.220;0.064;2023-12-14T06:53:06;7.80;;;2.90;;
83690;SDS011;73671;43.220;0.064;2023-12-14T06:55:31;6.28;;;2.42;;
83690;SDS011;73671;43.220;0.064;2023-12-14T06:57:56;10.05;;;4.18;;
83690;SDS011;73671;43.220;0.064;2023-12-14T07:00:22;9.88;;;4.30;;
83690;SDS011;73671;43.220;0.064;2023-12-14T07:02:47;18.73;;;9.27;;
83690;SDS011;73671;43.220;0.064;2023-12-14T07:05:12;18.90;;;9.38;;
83690;SDS011;73671;43.220;0.064;2023-12-14T07:07:38;8.82;;;4.43;;
83690;SDS011;73671;43.220;0.064;2023-12-14T07:10:04;10.38;;;3.35;;
83690;SDS011;73671;43.220;0.064;2023-12-14T07:12:29;9.32;;;3.13;;
83690;SDS011;73671;43.220;0.064;2023-12-14T07:14:55;9.25;;;5.28;;
83690;SDS011;73671;43.220;0.064;2023-12-14T07:17:20;9.40;;;5.15;;
83690;SDS011;73671;43.220;0.064;2023-12-14T07:19:45;7.65;;;3.95;;
83690;SDS011;73671;43.220;0.064;2023-12-14T07:22:11;11.90;;;3.20;;
83690;SDS011;73671;43.220;0.064;2023-12-14T07:24:36;8.10;;;3.00;;
83690;SDS011;73671;43.220;0.064;2023-12-14T07:27:02;16.23;;;6.78;;
83690;SDS011;73671;43.220;0.064;2023-12-14T07:29:28;12.60;;;5.55;;
83690;SDS011;73671;43.220;0.064;2023-12-14T07:31:53;23.67;;;8.30;;
83690;SDS011;73671;43.220;0.064;2023-12-14T07:34:18;18.10;;;8.07;;
83690;SDS011;73671;43.220;0.064;2023-12-14T07:36:45;26.08;;;5.68;;
83690;SDS011;73671;43.220;0.064;2023-12-14T07:39:10;35.20;;;9.15;;
83690;SDS011;73671;43.220;0.064;2023-12-14T07:41:37;13.57;;;8.27;;
83690;SDS011;73671;43.220;0.064;2023-12-14T07:44:02;14.85;;;6.82;;
83690;SDS011;73671;43.220;0.064;2023-12-14T07:46:29;10.95;;;4.90;;
83690;SDS011;73671;43.220;0.064;2023-12-14T07:48:55;14.80;;;6.20;;
83690;SDS011;73671;43.220;0.064;2023-12-14T07:51:20;7.22;;;2.97;;
83690;SDS011;73671;43.220;0.064;2023-12-14T07:53:46;9.07;;;4.65;;
83690;SDS011;73671;43.220;0.064;2023-12-14T07:56:12;9.27;;;4.07;;
83690;SDS011;73671;43.220;0.064;2023-12-14T07:58:37;13.07;;;6.90;;
83690;SDS011;73671;43.220;0.064;2023-12-14T08:01:03;12.32;;;5.00;;
83690;SDS011;73671;43.220;0.064;2023-12-14T08:03:28;18.70;;;4.53;;
83690;SDS011;73671;43.220;0.064;2023-12-14T08:05:54;8.75;;;3.70;;
83690;SDS011;73671;43.220;0.064;2023-12-14T08:08:19;10.02;;;3.72;;
83690;SDS011;73671;43.220;0.064;2023-12-14T08:10:44;11.68;;;3.20;;
83690;SDS011;73671;43.220;0.064;2023-12-14T08:13:10;6.45;;;2.35;;
83690;SDS011;73671;43.220;0.064;2023-12-14T08:15:36;10.93;;;2.70;;
83690;SDS011;73671;43.220;0.064;2023-12-14T08:18:01;9.27;;;3.05;;
83690;SDS011;73671;43.220;0.064;2023-12-14T08:20:27;6.82;;;3.28;;
83690;SDS011;73671;43.220;0.064;2023-12-14T08:22:52;8.38;;;3.10;;
83690;SDS011;73671;43.220;0.064;2023-12-14T08:25:17;7.50;;;3.20;;
83690;SDS011;73671;43.220;0.064;2023-12-14T08:27:43;5.38;;;2.38;;
83690;SDS011;73671;43.220;0.064;2023-12-14T08:30:09;8.40;;;2.78;;
83690;SDS011;73671;43.220;0.064;2023-12-14T08:32:35;9.68;;;2.97;;
83690;SDS011;73671;43.220;0.064;2023-12-14T08:35:01;6.88;;;2.50;;
83690;SDS011;73671;43.220;0.064;2023-12-14T08:37:27;9.93;;;2.58;;
83690;SDS011;73671;43.220;0.064;2023-12-14T08:39:52;5.03;;;2.90;;
83690;SDS011;73671;43.220;0.064;2023-12-14T08:42:17;6.95;;;3.33;;
83690;SDS011;73671;43.220;0.064;2023-12-14T08:44:43;4.30;;;2.83;;
83690;SDS011;73671;43.220;0.064;2023-12-14T08:47:08;8.20;;;2.50;;
83690;SDS011;73671;43.220;0.064;2023-12-14T08:49:34;6.63;;;2.28;;
83690;SDS011;73671;43.220;0.064;2023-12-14T08:52:00;5.72;;;2.85;;
83690;SDS011;73671;43.220;0.064;2023-12-14T08:54:25;7.88;;;2.20;;
83690;SDS011;73671;43.220;0.064;2023-12-14T08:56:51;5.68;;;2.05;;
83690;SDS011;73671;43.220;0.064;2023-12-14T08:59:17;6.05;;;2.25;;
83690;SDS011;73671;43.220;0.064;2023-12-14T09:01:45;9.48;;;2.70;;
83690;SDS011;73671;43.220;0.064;2023-12-14T09:04:10;6.15;;;2.17;;
83690;SDS011;73671;43.220;0.064;2023-12-14T09:06:35;6.40;;;2.60;;
83690;SDS011;73671;43.220;0.064;2023-12-14T09:09:01;4.28;;;2.28;;
83690;SDS011;73671;43.220;0.064;2023-12-14T09:11:27;6.97;;;2.50;;
83690;SDS011;73671;43.220;0.064;2023-12-14T09:13:53;7.78;;;2.17;;
83690;SDS011;73671;43.220;0.064;2023-12-14T09:16:18;2.78;;;1.77;;
83690;SDS011;73671;43.220;0.064;2023-12-14T09:18:44;6.63;;;2.08;;
83690;SDS011;73671;43.220;0.064;2023-12-14T09:21:09;12.85;;;2.42;;
83690;SDS011;73671;43.220;0.064;2023-12-14T09:23:34;4.90;;;1.88;;
83690;SDS011;73671;43.220;0.064;2023-12-14T09:26:00;5.10;;;2.00;;
83690;SDS011;73671;43.220;0.064;2023-12-14T09:28:25;4.03;;;1.92;;
83690;SDS011;73671;43.220;0.064;2023-12-14T09:30:51;4.78;;;2.70;;
83690;SDS011;73671;43.220;0.064;2023-12-14T09:33:17;7.90;;;2.65;;
83690;SDS011;73671;43.220;0.064;2023-12-14T09:35:43;5.72;;;2.53;;
83690;SDS011;73671;43.220;0.064;2023-12-14T09:38:08;7.55;;;2.45;;
83690;SDS011;73671;43.220;0.064;2023-12-14T09:40:34;5.68;;;3.67;;
83690;SDS011;73671;43.220;0.064;2023-12-14T09:42:59;5.82;;;3.50;;
83690;SDS011;73671;43.220;0.064;2023-12-14T09:45:28;5.50;;;2.17;;
83690;SDS011;73671;43.220;0.064;2023-12-14T09:47:56;4.72;;;3.22;;
83690;SDS011;73671;43.220;0.064;2023-12-14T09:50:23;5.13;;;2.15;;
83690;SDS011;73671;43.220;0.064;2023-12-14T09:52:48;7.57;;;2.20;;
83690;SDS011;73671;43.220;0.064;2023-12-14T09:55:14;6.28;;;1.70;;
83690;SDS011;73671;43.220;0.064;2023-12-14T09:57:40;3.53;;;1.73;;
83690;SDS011;73671;43.220;0.064;2023-12-14T10:00:06;3.00;;;1.60;;
83690;SDS011;73671;43.220;0.064;2023-12-14T10:02:35;6.22;;;1.60;;
83690;SDS011;73671;43.220;0.064;2023-12-14T10:05:01;4.90;;;1.80;;
83690;SDS011;73671;43.220;0.064;2023-12-14T10:07:27;7.03;;;1.70;;
83690;SDS011;73671;43.220;0.064;2023-12-14T10:09:52;7.63;;;2.67;;
83690;SDS011;73671;43.220;0.064;2023-12-14T10:12:18;7.60;;;3.25;;
83690;SDS011;73671;43.220;0.064;2023-12-14T10:14:46;4.45;;;2.60;;
83690;SDS011;73671;43.220;0.064;2023-12-14T10:17:15;3.65;;;2.20;;
83690;SDS011;73671;43.220;0.064;2023-12-14T10:19:53;2.92;;;1.52;;
83690;SDS011;73671;43.220;0.064;2023-12-14T10:22:18;3.25;;;1.60;;
83690;SDS011;73671;43.220;0.064;2023-12-14T10:24:44;3.42;;;2.00;;
83690;SDS011;73671;43.220;0.064;2023-12-14T10:27:11;5.85;;;2.10;;
83690;SDS011;73671;43.220;0.064;2023-12-14T10:29:37;4.93;;;2.20;;
83690;SDS011;73671;43.220;0.064;2023-12-14T10:32:04;9.63;;;1.90;;
83690;SDS011;73671;43.220;0.064;2023-12-14T10:34:32;3.30;;;1.75;;
83690;SDS011;73671;43.220;0.064;2023-12-14T10:36:58;7.28;;;1.75;;
83690;SDS011;73671;43.220;0.064;2023-12-14T10:39:24;3.55;;;1.95;;
83690;SDS011;73671;43.220;0.064;2023-12-14T10:41:51;5.57;;;2.38;;
83690;SDS011;73671;43.220;0.064;2023-12-14T10:44:20;9.15;;;2.38;;
83690;SDS011;73671;43.220;0.064;2023-12-14T10:46:50;5.30;;;1.42;;
83690;SDS011;73671;43.220;0.064;2023-12-14T10:49:21;5.15;;;1.95;;
83690;SDS011;73671;43.220;0.064;2023-12-14T10:51:48;4.22;;;1.42;;
83690;SDS011;73671;43.220;0.064;2023-12-14T10:54:14;4.13;;;1.30;;
83690;SDS011;73671;43.220;0.064;2023-12-14T10:56:41;4.22;;;1.30;;
83690;SDS011;73671;43.220;0.064;2023-12-14T10:59:07;4.30;;;1.23;;
83690;SDS011;73671;43.220;0.064;2023-12-14T11:01:32;3.10;;;1.20;;
83690;SDS011;73671;43.220;0.064;2023-12-14T11:04:00;2.53;;;1.30;;
83690;SDS011;73671;43.220;0.064;2023-12-14T11:09:00;5.25;;;2.30;;
83690;SDS011;73671;43.220;0.064;2023-12-14T11:11:38;2.30;;;1.30;;
83690;SDS011;73671;43.220;0.064;2023-12-14T11:14:07;6.38;;;1.70;;
83690;SDS011;73671;43.220;0.064;2023-12-14T11:16:35;6.07;;;1.80;;
83690;SDS011;73671;43.220;0.064;2023-12-14T11:21:46;5.60;;;1.90;;
83690;SDS011;73671;43.220;0.064;2023-12-14T11:24:12;2.97;;;1.75;;
83690;SDS011;73671;43.220;0.064;2023-12-14T11:26:38;4.97;;;1.70;;
83690;SDS011;73671;43.220;0.064;2023-12-14T11:29:04;6.63;;;3.13;;
83690;SDS011;73671;43.220;0.064;2023-12-14T11:31:31;3.55;;;1.42;;
83690;SDS011;73671;43.220;0.064;2023-12-14T11:33:58;8.85;;;1.67;;
83690;SDS011;73671;43.220;0.064;2023-12-14T11:36:25;3.67;;;1.40;;
83690;SDS011;73671;43.220;0.064;2023-12-14T11:38:51;3.33;;;1.73;;
83690;SDS011;73671;43.220;0.064;2023-12-14T11:41:19;5.35;;;1.50;;
83690;SDS011;73671;43.220;0.064;2023-12-14T11:43:50;4.22;;;1.23;;
83690;SDS011;73671;43.220;0.064;2023-12-14T11:46:16;2.70;;;1.33;;
83690;SDS011;73671;43.220;0.064;2023-12-14T11:48:43;4.53;;;1.63;;
83690;SDS011;73671;43.220;0.064;2023-12-14T11:51:10;4.90;;;1.40;;
83690;SDS011;73671;43.220;0.064;2023-12-14T11:53:36;3.10;;;1.35;;
83690;SDS011;73671;43.220;0.064;2023-12-14T11:56:05;3.85;;;1.10;;
83690;SDS011;73671;43.220;0.064;2023-12-14T11:58:33;2.45;;;1.00;;
83690;SDS011;73671;43.220;0.064;2023-12-14T12:03:41;3.42;;;1.13;;
83690;SDS011;73671;43.220;0.064;2023-12-14T12:06:09;2.38;;;1.10;;
83690;SDS011;73671;43.220;0.064;2023-12-14T12:08:45;3.22;;;0.90;;
83690;SDS011;73671;43.220;0.064;2023-12-14T12:11:10;3.83;;;1.20;;
83690;SDS011;73671;43.220;0.064;2023-12-14T12:13:35;3.75;;;1.20;;
83690;SDS011;73671;43.220;0.064;2023-12-14T12:16:01;5.35;;;1.20;;
83690;SDS011;73671;43.220;0.064;2023-12-14T12:18:26;2.22;;;1.45;;
83690;SDS011;73671;43.220;0.064;2023-12-14T12:20:52;6.10;;;1.17;;
83690;SDS011;73671;43.220;0.064;2023-12-14T12:23:18;2.03;;;1.27;;
83690;SDS011;73671;43.220;0.064;2023-12-14T12:25:43;4.03;;;1.67;;
83690;SDS011;73671;43.220;0.064;2023-12-14T12:28:09;4.88;;;1.15;;
83690;SDS011;73671;43.220;0.064;2023-12-14T12:30:35;3.28;;;1.08;;
83690;SDS011;73671;43.220;0.064;2023-12-14T12:33:00;2.97;;;1.20;;
83690;SDS011;73671;43.220;0.064;2023-12-14T12:35:26;4.45;;;1.48;;
83690;SDS011;73671;43.220;0.064;2023-12-14T12:37:51;3.35;;;1.15;;
83690;SDS011;73671;43.220;0.064;2023-12-14T12:40:20;5.38;;;1.27;;
83690;SDS011;73671;43.220;0.064;2023-12-14T12:42:47;7.88;;;1.40;;
83690;SDS011;73671;43.220;0.064;2023-12-14T12:45:15;3.40;;;1.10;;
83690;SDS011;73671;43.220;0.064;2023-12-14T12:47:46;4.93;;;1.30;;
83690;SDS011;73671;43.220;0.064;2023-12-14T12:50:13;5.50;;;1.30;;
83690;SDS011;73671;43.220;0.064;2023-12-14T12:52:38;5.70;;;1.30;;
83690;SDS011;73671;43.220;0.064;2023-12-14T12:55:07;2.80;;;0.90;;
83690;SDS011;73671;43.220;0.064;2023-12-14T12:57:34;6.47;;;1.60;;
83690;SDS011;73671;43.220;0.064;2023-12-14T13:00:00;7.63;;;3.05;;
83690;SDS011;73671;43.220;0.064;2023-12-14T13:02:26;3.72;;;1.60;;
83690;SDS011;73671;43.220;0.064;2023-12-14T13:04:51;5.65;;;1.00;;
83690;SDS011;73671;43.220;0.064;2023-12-14T13:07:17;2.58;;;1.30;;
83690;SDS011;73671;43.220;0.064;2023-12-14T13:09:43;5.07;;;1.60;;
83690;SDS011;73671;43.220;0.064;2023-12-14T13:12:09;7.07;;;2.13;;
83690;SDS011;73671;43.220;0.064;2023-12-14T13:14:35;3.38;;;1.80;;
83690;SDS011;73671;43.220;0.064;2023-12-14T13:17:00;5.70;;;1.70;;
83690;SDS011;73671;43.220;0.064;2023-12-14T13:19:25;4.72;;;1.30;;
83690;SDS011;73671;43.220;0.064;2023-12-14T13:21:51;6.22;;;1.23;;
83690;SDS011;73671;43.220;0.064;2023-12-14T13:24:17;4.00;;;1.20;;
83690;SDS011;73671;43.220;0.064;2023-12-14T13:26:43;4.13;;;1.10;;
83690;SDS011;73671;43.220;0.064;2023-12-14T13:29:08;1.77;;;1.13;;
83690;SDS011;73671;43.220;0.064;2023-12-14T13:31:34;4.53;;;1.30;;
83690;SDS011;73671;43.220;0.064;2023-12-14T13:33:59;2.90;;;1.45;;
83690;SDS011;73671;43.220;0.064;2023-12-14T13:36:24;9.23;;;1.58;;
83690;SDS011;73671;43.220;0.064;2023-12-14T13:38:50;4.40;;;1.42;;
83690;SDS011;73671;43.220;0.064;2023-12-14T13:41:15;4.88;;;2.08;;
83690;SDS011;73671;43.220;0.064;2023-12-14T13:43:41;10.10;;;1.60;;
83690;SDS011;73671;43.220;0.064;2023-12-14T13:46:06;5.63;;;1.38;;
83690;SDS011;73671;43.220;0.064;2023-12-14T13:48:31;6.75;;;1.60;;
83690;SDS011;73671;43.220;0.064;2023-12-14T13:50:57;2.75;;;1.13;;
83690;SDS011;73671;43.220;0.064;2023-12-14T13:53:22;9.13;;;1.70;;
83690;SDS011;73671;43.220;0.064;2023-12-14T13:55:48;3.53;;;1.35;;
83690;SDS011;73671;43.220;0.064;2023-12-14T13:58:14;3.08;;;1.20;;
83690;SDS011;73671;43.220;0.064;2023-12-14T14:00:40;5.10;;;1.30;;
83690;SDS011;73671;43.220;0.064;2023-12-14T14:03:05;4.70;;;1.27;;
83690;SDS011;73671;43.220;0.064;2023-12-14T14:05:31;3.53;;;1.10;;
83690;SDS011;73671;43.220;0.064;2023-12-14T14:07:57;4.13;;;1.60;;
83690;SDS011;73671;43.220;0.064;2023-12-14T14:10:23;4.93;;;1.33;;
83690;SDS011;73671;43.220;0.064;2023-12-14T14:12:48;3.25;;;1.85;;
83690;SDS011;73671;43.220;0.064;2023-12-14T14:15:14;4.53;;;1.42;;
83690;SDS011;73671;43.220;0.064;2023-12-14T14:17:40;3.67;;;1.63;;
83690;SDS011;73671;43.220;0.064;2023-12-14T14:20:05;4.50;;;1.42;;
83690;SDS011;73671;43.220;0.064;2023-12-14T14:22:32;4.25;;;1.45;;
83690;SDS011;73671;43.220;0.064;2023-12-14T14:24:58;4.78;;;1.27;;
83690;SDS011;73671;43.220;0.064;2023-12-14T14:27:23;5.05;;;1.70;;
83690;SDS011;73671;43.220;0.064;2023-12-14T14:29:49;6.30;;;2.05;;
83690;SDS011;73671;43.220;0.064;2023-12-14T14:32:15;6.70;;;2.13;;
83690;SDS011;73671;43.220;0.064;2023-12-14T14:34:41;5.75;;;1.55;;
83690;SDS011;73671;43.220;0.064;2023-12-14T14:37:07;4.15;;;1.50;;
83690;SDS011;73671;43.220;0.064;2023-12-14T14:39:32;3.60;;;1.50;;
83690;SDS011;73671;43.220;0.064;2023-12-14T14:41:58;9.23;;;2.75;;
83690;SDS011;73671;43.220;0.064;2023-12-14T14:44:23;4.75;;;2.00;;
83690;SDS011;73671;43.220;0.064;2023-12-14T14:46:50;4.72;;;2.30;;
83690;SDS011;73671;43.220;0.064;2023-12-14T14:49:16;4.53;;;1.80;;